createdAt,value
2023-03-12T00:00:11.392Z,1.42
2023-03-12T00:02:38.619Z,1.40
2023-03-12T00:05:06.388Z,1.49
2023-03-12T00:07:33.714Z,1.45
2023-03-12T00:10:00.843Z,1.42
2023-03-12T00:12:27.879Z,1.39
2023-03-12T00:14:55.096Z,1.43
2023-03-12T00:17:22.164Z,1.41
2023-03-12T00:19:53.835Z,1.41
2023-03-12T00:22:23.815Z,1.42
2023-03-12T00:24:56.556Z,1.37
2023-03-12T00:27:25.789Z,1.38
2023-03-12T00:29:53.236Z,1.34
2023-03-12T00:32:20.639Z,1.42
2023-03-12T00:34:55.931Z,1.38
2023-03-12T00:37:23.512Z,1.39
2023-03-12T00:39:50.661Z,1.25
2023-03-12T00:42:18.938Z,1.28
2023-03-12T00:44:46.472Z,1.26
2023-03-12T00:47:14.256Z,1.29
2023-03-12T00:49:41.419Z,1.25
2023-03-12T00:52:08.931Z,1.31
2023-03-12T00:54:36.282Z,1.27
2023-03-12T00:57:03.425Z,1.32
2023-03-12T00:59:30.628Z,1.35
2023-03-12T01:01:58.013Z,1.36
2023-03-12T01:04:25.222Z,1.36
2023-03-12T01:06:52.379Z,1.32
2023-03-12T01:09:19.561Z,1.33
2023-03-12T01:11:46.583Z,1.31
2023-03-12T01:14:13.622Z,1.34
2023-03-12T01:16:40.732Z,1.27
2023-03-12T01:19:07.868Z,1.24
2023-03-12T01:21:34.921Z,1.38
2023-03-12T01:24:02.027Z,1.40
2023-03-12T01:26:29.246Z,1.42
2023-03-12T01:28:56.476Z,1.39
2023-03-12T01:31:23.736Z,1.35
2023-03-12T01:33:54.475Z,1.36
2023-03-12T01:36:28.794Z,1.38
2023-03-12T01:38:59.238Z,1.40
2023-03-12T01:41:29.875Z,1.39
2023-03-12T01:43:57.133Z,1.46
2023-03-12T01:46:39.719Z,1.53
2023-03-12T01:49:22.160Z,1.47
2023-03-12T01:52:04.259Z,1.52
2023-03-12T01:54:41.121Z,1.59
2023-03-12T01:57:15.693Z,1.51
2023-03-12T01:59:54.212Z,1.51
2023-03-12T02:02:27.010Z,1.55
2023-03-12T02:05:17.284Z,1.54
2023-03-12T02:07:44.312Z,1.51
2023-03-12T02:10:11.929Z,1.66
2023-03-12T02:12:39.148Z,1.59
2023-03-12T02:15:07.259Z,1.63
2023-03-12T02:17:35.715Z,1.61
2023-03-12T02:20:19.862Z,1.77
2023-03-12T02:23:00.328Z,1.67
2023-03-12T02:25:37.103Z,1.52
2023-03-12T02:28:09.445Z,1.59
2023-03-12T02:30:39.501Z,1.63
2023-03-12T02:33:09.072Z,1.65
2023-03-12T02:35:36.871Z,1.62
2023-03-12T02:38:36.196Z,1.55
2023-03-12T02:41:19.300Z,1.51
2023-03-12T02:43:58.894Z,1.56
2023-03-12T02:46:26.837Z,1.43
2023-03-12T02:48:55.316Z,1.51
2023-03-12T02:51:22.395Z,1.46
2023-03-12T02:53:54.756Z,1.44
2023-03-12T02:56:24.943Z,1.43
2023-03-12T02:58:51.978Z,1.56
2023-03-12T03:01:19.456Z,1.58
2023-03-12T03:03:47.432Z,1.59
2023-03-12T03:06:15.085Z,1.56
2023-03-12T03:08:42.243Z,1.61
2023-03-12T03:11:09.573Z,1.60
2023-03-12T03:13:37.015Z,1.64
2023-03-12T03:16:04.839Z,1.67
2023-03-12T03:18:32.479Z,1.58
2023-03-12T03:21:07.915Z,1.66
2023-03-12T03:23:35.770Z,1.77
2023-03-12T03:26:03.471Z,1.67
2023-03-12T03:28:31.258Z,1.65
2023-03-12T03:31:01.852Z,1.70
2023-03-12T03:33:31.193Z,1.65
2023-03-12T03:35:59.764Z,1.74
2023-03-12T03:38:29.435Z,1.79
2023-03-12T03:40:56.634Z,1.72
2023-03-12T03:43:24.301Z,1.75
2023-03-12T03:46:05.841Z,1.79
2023-03-12T03:48:33.273Z,1.84
2023-03-12T03:51:06.022Z,1.82
2023-03-12T03:53:33.281Z,1.85
2023-03-12T03:56:11.397Z,1.78
2023-03-12T03:58:38.600Z,1.82
2023-03-12T04:01:06.577Z,1.91
2023-03-12T04:03:34.457Z,1.91
2023-03-12T04:06:05.024Z,1.80
2023-03-12T04:08:35.441Z,1.78
2023-03-12T04:11:21.286Z,1.85
2023-03-12T04:13:49.502Z,1.91
2023-03-12T04:16:17.324Z,1.90
2023-03-12T04:18:44.990Z,1.93
2023-03-12T04:21:14.069Z,1.92
2023-03-12T04:23:41.319Z,1.94
2023-03-12T04:26:09.018Z,1.96
2023-03-12T04:28:37.431Z,2.08
2023-03-12T04:31:08.654Z,2.11
2023-03-12T04:33:38.662Z,2.11
2023-03-12T04:36:07.184Z,2.11
2023-03-12T04:38:34.413Z,2.15
2023-03-12T04:41:04.927Z,2.16
2023-03-12T04:43:32.796Z,2.07
2023-03-12T04:46:00.755Z,2.08
2023-03-12T04:48:28.541Z,1.98
2023-03-12T04:50:55.620Z,2.10
2023-03-12T04:53:23.132Z,2.08
2023-03-12T04:55:50.650Z,2.08
2023-03-12T04:58:19.449Z,2.07
2023-03-12T05:00:48.423Z,2.07
2023-03-12T05:03:15.745Z,2.07
2023-03-12T05:05:42.882Z,2.02
2023-03-12T05:08:09.935Z,2.00
2023-03-12T05:10:36.969Z,2.03
2023-03-12T05:13:04.010Z,2.01
2023-03-12T05:15:31.115Z,2.05
2023-03-12T05:17:58.185Z,2.17
2023-03-12T05:20:25.208Z,2.07
2023-03-12T05:22:52.255Z,2.08
2023-03-12T05:25:19.350Z,2.05
2023-03-12T05:27:46.345Z,1.99
2023-03-12T05:30:13.700Z,2.08
2023-03-12T05:32:40.905Z,2.17
2023-03-12T05:35:08.555Z,2.27
2023-03-12T05:37:35.629Z,2.16
2023-03-12T05:40:02.713Z,2.27
2023-03-12T05:42:29.727Z,2.27
2023-03-12T05:44:57.381Z,2.28
2023-03-12T05:47:24.423Z,2.29
2023-03-12T05:49:52.272Z,2.28
2023-03-12T05:52:19.362Z,2.23
2023-03-12T05:54:46.373Z,2.28
2023-03-12T05:57:13.483Z,2.31
2023-03-12T05:59:40.529Z,2.31
2023-03-12T06:02:07.687Z,2.38
2023-03-12T06:04:34.726Z,2.42
2023-03-12T06:07:01.742Z,2.44
2023-03-12T06:09:28.742Z,2.44
2023-03-12T06:11:55.765Z,2.48
2023-03-12T06:14:22.824Z,2.46
2023-03-12T06:16:49.868Z,2.52
2023-03-12T06:19:16.980Z,2.60
2023-03-12T06:21:44.410Z,2.62
2023-03-12T06:24:11.545Z,2.78
2023-03-12T06:26:38.908Z,3.00
2023-03-12T06:29:06.046Z,3.15
2023-03-12T06:31:33.095Z,3.25
2023-03-12T06:34:00.166Z,3.25
2023-03-12T06:36:27.262Z,3.25
2023-03-12T06:38:57.020Z,3.23
2023-03-12T06:41:24.420Z,3.13
2023-03-12T06:43:51.483Z,3.10
2023-03-12T06:46:21.967Z,3.15
2023-03-12T06:48:49.499Z,2.97
2023-03-12T06:51:18.283Z,3.20
2023-03-12T06:53:46.634Z,3.36
2023-03-12T06:56:14.031Z,3.26
2023-03-12T06:58:41.620Z,3.26
2023-03-12T07:01:08.776Z,3.30
2023-03-12T07:03:36.065Z,3.82
2023-03-12T07:06:03.724Z,4.28
2023-03-12T07:08:31.202Z,4.33
2023-03-12T07:11:01.846Z,4.39
2023-03-12T07:13:29.908Z,4.11
2023-03-12T07:15:57.112Z,4.28
2023-03-12T07:18:24.136Z,7.68
2023-03-12T07:20:52.042Z,8.59
2023-03-12T07:23:19.192Z,7.12
2023-03-12T07:25:46.502Z,6.94
2023-03-12T07:28:14.144Z,8.69
2023-03-12T07:30:41.872Z,10.86
2023-03-12T07:33:12.475Z,12.57
2023-03-12T07:35:40.542Z,14.91
2023-03-12T07:38:10.040Z,15.16
2023-03-12T07:40:38.959Z,14.62
2023-03-12T07:43:11.286Z,12.58
2023-03-12T07:45:39.949Z,11.36
2023-03-12T07:48:07.427Z,10.57
2023-03-12T07:50:35.782Z,11.10
2023-03-12T07:53:03.153Z,10.36
2023-03-12T07:55:30.901Z,9.85
2023-03-12T07:57:59.201Z,9.42
2023-03-12T08:00:28.290Z,9.04
2023-03-12T08:02:55.491Z,8.84
2023-03-12T08:05:25.035Z,8.23
2023-03-12T08:07:52.874Z,7.99
2023-03-12T08:10:21.534Z,7.83
2023-03-12T08:12:49.180Z,7.52
2023-03-12T08:15:16.778Z,7.34
2023-03-12T08:17:44.432Z,6.97
2023-03-12T08:20:12.820Z,6.92
2023-03-12T08:22:41.108Z,6.63
2023-03-12T08:25:09.476Z,6.54
2023-03-12T08:27:36.931Z,6.65
2023-03-12T08:30:06.537Z,6.86
2023-03-12T08:32:34.357Z,7.95
2023-03-12T08:35:01.640Z,8.40
2023-03-12T08:37:28.686Z,8.21
2023-03-12T08:39:55.845Z,8.39
2023-03-12T08:42:22.985Z,8.82
2023-03-12T08:44:50.196Z,10.08
2023-03-12T08:47:17.704Z,10.40
2023-03-12T08:49:44.975Z,10.32
2023-03-12T08:52:12.038Z,10.73
2023-03-12T08:54:39.082Z,11.17
2023-03-12T08:57:06.336Z,11.24
2023-03-12T08:59:33.458Z,11.26
2023-03-12T09:02:01.485Z,11.96
2023-03-12T09:04:28.587Z,11.45
2023-03-12T09:06:55.659Z,11.46
2023-03-12T09:09:22.699Z,11.08
2023-03-12T09:11:49.744Z,11.15
2023-03-12T09:17:04.028Z,10.30
2023-03-12T09:19:31.177Z,10.09
2023-03-12T09:21:58.387Z,9.78
2023-03-12T09:24:25.600Z,9.74
2023-03-12T09:26:52.824Z,9.53
2023-03-12T09:29:19.992Z,10.01
2023-03-12T09:31:47.144Z,9.96
2023-03-12T09:34:14.191Z,9.68
2023-03-12T09:36:41.276Z,9.54
2023-03-12T09:39:08.445Z,9.86
2023-03-12T09:41:39.990Z,9.80
2023-03-12T09:44:32.488Z,10.06
2023-03-12T09:47:12.589Z,10.27
2023-03-12T09:49:49.294Z,10.62
2023-03-12T09:52:34.165Z,10.37
2023-03-12T09:55:20.591Z,9.86
2023-03-12T09:57:50.662Z,9.46
2023-03-12T10:00:27.355Z,9.58
2023-03-12T10:03:06.288Z,9.23
2023-03-12T10:06:20.544Z,9.17
2023-03-12T10:09:34.003Z,9.27
2023-03-12T10:12:38.249Z,9.64
2023-03-12T10:15:11.782Z,9.49
2023-03-12T10:18:00.570Z,9.53
2023-03-12T10:20:42.373Z,9.44
2023-03-12T10:23:23.553Z,9.69
2023-03-12T10:26:03.606Z,9.47
2023-03-12T10:29:04.011Z,9.24
2023-03-12T10:32:03.053Z,9.09
2023-03-12T10:34:56.567Z,10.05
2023-03-12T10:38:09.358Z,10.32
2023-03-12T10:40:39.048Z,10.78
2023-03-12T10:43:10.006Z,11.60
2023-03-12T10:46:34.795Z,12.19
2023-03-12T10:49:23.422Z,12.39
2023-03-12T10:52:06.469Z,11.90
2023-03-12T10:54:37.153Z,12.28
2023-03-12T10:57:05.391Z,12.97
2023-03-12T10:59:43.081Z,12.46
2023-03-12T11:02:44.041Z,13.44
2023-03-12T11:05:28.788Z,12.84
2023-03-12T11:07:57.143Z,12.71
2023-03-12T11:10:46.385Z,12.41
2023-03-12T11:13:39.176Z,12.55
2023-03-12T11:16:18.190Z,12.20
2023-03-12T11:19:06.324Z,12.15
2023-03-12T11:21:38.293Z,11.68
2023-03-12T11:24:13.339Z,12.34
2023-03-12T11:26:59.750Z,12.58
2023-03-12T11:29:33.290Z,13.01
2023-03-12T11:32:24.250Z,13.45
2023-03-12T11:34:52.815Z,13.76
2023-03-12T11:38:03.320Z,13.93
2023-03-12T11:41:07.474Z,14.19
2023-03-12T11:43:43.704Z,14.34
2023-03-12T11:46:51.872Z,14.20
2023-03-12T11:49:44.613Z,14.59
2023-03-12T11:52:51.899Z,14.84
2023-03-12T11:55:50.510Z,14.74
2023-03-12T11:58:33.388Z,14.82
2023-03-12T12:01:40.602Z,15.02
2023-03-12T12:04:37.475Z,15.02
2023-03-12T12:07:17.108Z,15.00
2023-03-12T12:10:03.010Z,14.66
2023-03-12T12:12:54.787Z,14.77
2023-03-12T12:15:57.085Z,14.58
2023-03-12T12:18:50.635Z,14.15
2023-03-12T12:21:29.756Z,13.71
2023-03-12T12:24:05.238Z,13.71
2023-03-12T12:27:06.763Z,13.69
2023-03-12T12:30:09.657Z,13.47
2023-03-12T12:33:08.998Z,13.30
2023-03-12T12:35:43.431Z,12.91
2023-03-12T12:38:30.583Z,12.75
2023-03-12T12:41:25.014Z,12.90
2023-03-12T12:44:12.984Z,12.89
2023-03-12T12:46:46.891Z,12.32
2023-03-12T12:49:32.067Z,12.57
2023-03-12T12:52:07.079Z,12.18
2023-03-12T12:55:15.681Z,12.03
2023-03-12T12:57:56.864Z,11.61
2023-03-12T13:00:35.756Z,11.45
2023-03-12T13:03:03.677Z,11.57
2023-03-12T13:05:36.490Z,11.57
2023-03-12T13:08:08.745Z,11.52
2023-03-12T13:10:35.689Z,11.42
2023-03-12T13:13:20.170Z,11.16
2023-03-12T13:15:48.511Z,10.89
2023-03-12T13:18:25.259Z,10.89
2023-03-12T13:20:52.197Z,10.84
2023-03-12T13:23:49.236Z,10.85
2023-03-12T13:26:56.820Z,10.51
2023-03-12T13:29:29.578Z,10.71
2023-03-12T13:31:57.488Z,10.61
2023-03-12T13:34:26.895Z,10.43
2023-03-12T13:37:01.772Z,10.28
2023-03-12T13:39:33.113Z,10.33
2023-03-12T13:42:02.590Z,10.48
2023-03-12T13:44:33.026Z,10.34
2023-03-12T13:47:29.939Z,10.01
2023-03-12T13:50:06.853Z,10.09
2023-03-12T13:52:42.007Z,10.11
2023-03-12T13:55:27.173Z,9.75
2023-03-12T13:58:21.517Z,9.57
2023-03-12T14:01:02.334Z,9.37
2023-03-12T14:03:49.609Z,9.14
2023-03-12T14:06:24.697Z,9.24
2023-03-12T14:09:12.692Z,9.19
2023-03-12T14:12:04.420Z,9.01
2023-03-12T14:14:48.574Z,9.02
2023-03-12T14:17:21.089Z,9.04
2023-03-12T14:20:09.244Z,8.90
2023-03-12T14:22:39.307Z,8.83
2023-03-12T14:25:37.096Z,8.77
2023-03-12T14:28:13.638Z,8.66
2023-03-12T14:30:52.147Z,8.59
2023-03-12T14:33:21.023Z,8.69
2023-03-12T14:36:16.981Z,8.67
2023-03-12T14:38:46.297Z,8.74
2023-03-12T14:41:34.061Z,8.60
2023-03-12T14:44:18.869Z,8.46
2023-03-12T14:47:17.586Z,8.36
2023-03-12T14:49:46.871Z,8.51
2023-03-12T14:52:22.977Z,8.61
2023-03-12T14:55:01.751Z,8.59
2023-03-12T14:57:29.008Z,8.48
2023-03-12T14:59:59.591Z,8.30
2023-03-12T15:02:30.404Z,8.37
2023-03-12T15:05:01.608Z,8.25
2023-03-12T15:07:40.294Z,8.18
2023-03-12T15:10:27.205Z,8.06
2023-03-12T15:12:58.416Z,7.95
2023-03-12T15:15:44.154Z,8.04
2023-03-12T15:18:28.282Z,8.04
2023-03-12T15:20:57.894Z,7.84
2023-03-12T15:23:27.953Z,7.77
2023-03-12T15:26:19.453Z,7.63
2023-03-12T15:29:26.950Z,7.58
2023-03-12T15:31:58.104Z,7.45
2023-03-12T15:34:38.924Z,7.52
2023-03-12T15:37:37.952Z,8.63
2023-03-12T15:40:24.136Z,8.28
2023-03-12T15:42:52.837Z,7.92
2023-03-12T15:45:40.601Z,7.65
2023-03-12T15:48:54.914Z,7.72
2023-03-12T15:51:35.712Z,7.61
2023-03-12T15:54:14.777Z,7.68
2023-03-12T15:56:41.847Z,7.48
2023-03-12T15:59:24.714Z,7.46
2023-03-12T16:01:55.311Z,7.48
2023-03-12T16:04:24.640Z,7.41
2023-03-12T16:06:53.459Z,7.20
2023-03-12T16:09:26.235Z,7.19
2023-03-12T16:11:56.794Z,7.20
2023-03-12T16:14:34.578Z,7.09
2023-03-12T16:17:01.745Z,7.18
2023-03-12T16:19:33.306Z,7.03
2023-03-12T16:22:00.467Z,6.89
2023-03-12T16:24:27.577Z,6.92
2023-03-12T16:26:58.220Z,6.92
2023-03-12T16:29:35.334Z,6.82
2023-03-12T16:32:08.745Z,6.71
2023-03-12T16:34:35.887Z,6.70
2023-03-12T16:37:02.976Z,6.68
2023-03-12T16:39:33.192Z,6.63
2023-03-12T16:42:02.088Z,6.66
2023-03-12T16:44:34.384Z,6.59
2023-03-12T16:47:02.026Z,6.47
2023-03-12T16:49:29.289Z,6.58
2023-03-12T16:51:56.598Z,6.42
2023-03-12T16:54:23.667Z,6.46
2023-03-12T16:56:51.074Z,6.46
2023-03-12T16:59:31.847Z,6.47
2023-03-12T17:01:58.935Z,6.32
2023-03-12T17:04:26.018Z,6.38
2023-03-12T17:06:53.136Z,6.37
2023-03-12T17:09:20.171Z,6.39
2023-03-12T17:11:51.643Z,6.34
2023-03-12T17:14:23.129Z,6.29
2023-03-12T17:16:50.992Z,6.20
2023-03-12T17:19:18.055Z,6.18
2023-03-12T17:21:45.992Z,6.22
2023-03-12T17:24:14.203Z,6.18
2023-03-12T17:26:43.382Z,6.15
2023-03-12T17:29:10.561Z,6.11
2023-03-12T17:31:37.883Z,6.04
2023-03-12T17:34:05.343Z,6.10
2023-03-12T17:36:35.378Z,6.07
2023-03-12T17:39:02.683Z,6.02
2023-03-12T17:41:32.591Z,5.99
2023-03-12T17:44:02.188Z,5.98
2023-03-12T17:46:30.866Z,6.04
2023-03-12T17:48:58.077Z,5.93
2023-03-12T17:51:25.854Z,5.97
2023-03-12T17:53:53.712Z,5.85
2023-03-12T17:56:21.620Z,5.90
2023-03-12T17:58:49.119Z,5.82
2023-03-12T18:01:17.657Z,5.82
2023-03-12T18:03:44.912Z,5.76
2023-03-12T18:06:12.706Z,5.84
2023-03-12T18:08:39.816Z,5.73
2023-03-12T18:11:07.203Z,5.66
2023-03-12T18:13:34.303Z,5.71
2023-03-12T18:16:01.395Z,5.73
2023-03-12T18:18:28.725Z,5.63
2023-03-12T18:20:56.197Z,5.61
2023-03-12T18:23:25.262Z,5.57
2023-03-12T18:25:52.420Z,5.60
2023-03-12T18:28:20.875Z,5.44
2023-03-12T18:30:48.692Z,5.45
2023-03-12T18:33:16.377Z,5.49
2023-03-12T18:35:44.887Z,5.46
2023-03-12T18:38:12.229Z,5.31
2023-03-12T18:40:39.578Z,5.39
2023-03-12T18:43:06.594Z,5.31
2023-03-12T18:45:33.838Z,5.33
2023-03-12T18:48:00.846Z,5.39
2023-03-12T18:50:27.963Z,5.43
2023-03-12T18:52:56.565Z,5.44
2023-03-12T18:55:23.600Z,5.32
2023-03-12T18:57:51.075Z,5.35
2023-03-12T19:00:19.222Z,5.32
2023-03-12T19:02:48.023Z,5.38
2023-03-12T19:05:15.473Z,5.41
2023-03-12T19:07:42.911Z,5.29
2023-03-12T19:10:12.176Z,5.41
2023-03-12T19:12:51.747Z,5.39
2023-03-12T19:15:21.617Z,5.36
2023-03-12T19:17:48.675Z,5.35
2023-03-12T19:20:16.310Z,5.32
2023-03-12T19:22:43.385Z,5.36
2023-03-12T19:25:10.670Z,5.30
2023-03-12T19:27:37.733Z,5.26
2023-03-12T19:30:05.644Z,5.35
2023-03-12T19:32:42.326Z,5.35
2023-03-12T19:35:12.471Z,5.39
2023-03-12T19:37:39.935Z,5.25
2023-03-12T19:40:08.387Z,5.29
2023-03-12T19:42:35.449Z,5.25
2023-03-12T19:45:02.501Z,5.17
2023-03-12T19:47:29.783Z,5.07
2023-03-12T19:49:56.833Z,5.19
2023-03-12T19:52:24.075Z,5.13
2023-03-12T19:55:03.407Z,5.08
2023-03-12T19:57:31.630Z,5.08
2023-03-12T19:59:59.887Z,5.12
2023-03-12T20:02:27.135Z,5.06
2023-03-12T20:04:55.410Z,5.06
2023-03-12T20:07:22.981Z,5.06
2023-03-12T20:09:50.126Z,5.08
2023-03-12T20:12:17.277Z,5.03
2023-03-12T20:14:44.702Z,4.97
2023-03-12T20:17:12.309Z,4.98
2023-03-12T20:19:39.836Z,4.97
2023-03-12T20:22:07.431Z,4.89
2023-03-12T20:24:34.682Z,4.84
2023-03-12T20:27:01.902Z,4.84
2023-03-12T20:29:28.900Z,4.78
2023-03-12T20:31:55.988Z,4.74
2023-03-12T20:34:24.268Z,4.77
2023-03-12T20:36:51.277Z,4.83
2023-03-12T20:39:18.375Z,4.74
2023-03-12T20:41:45.407Z,4.77
2023-03-12T20:44:12.413Z,4.72
2023-03-12T20:46:39.465Z,4.69
2023-03-12T20:49:06.542Z,4.72
2023-03-12T20:51:33.612Z,4.69
2023-03-12T20:54:00.658Z,4.69
2023-03-12T20:56:27.731Z,4.61
2023-03-12T20:58:54.840Z,4.60
2023-03-12T21:01:21.984Z,4.58
2023-03-12T21:03:49.026Z,4.58
2023-03-12T21:06:16.087Z,4.48
2023-03-12T21:08:43.124Z,4.53
2023-03-12T21:11:10.366Z,4.58
2023-03-12T21:13:37.562Z,4.56
2023-03-12T21:16:09.081Z,4.51
2023-03-12T21:18:36.668Z,4.57
2023-03-12T21:21:07.714Z,4.53
2023-03-12T21:23:36.192Z,4.49
2023-03-12T21:26:09.345Z,4.51
2023-03-12T21:28:36.845Z,4.42
2023-03-12T21:31:06.977Z,4.42
2023-03-12T21:33:34.376Z,4.41
2023-03-12T21:36:08.791Z,4.43
2023-03-12T21:38:36.590Z,4.39
2023-03-12T21:41:13.475Z,4.40
2023-03-12T21:43:40.922Z,4.45
2023-03-12T21:46:15.013Z,4.38
2023-03-12T21:48:46.074Z,4.38
2023-03-12T21:51:17.044Z,4.33
2023-03-12T21:53:44.421Z,4.40
2023-03-12T21:56:12.210Z,4.45
2023-03-12T21:58:39.370Z,4.43
2023-03-12T22:01:18.368Z,4.44
2023-03-12T22:03:46.997Z,4.50
2023-03-12T22:06:15.421Z,4.38
2023-03-12T22:08:43.889Z,4.39
2023-03-12T22:11:11.421Z,4.38
2023-03-12T22:13:38.437Z,4.27
2023-03-12T22:16:08.312Z,4.37
2023-03-12T22:18:40.772Z,4.33
2023-03-12T22:21:12.511Z,4.34
2023-03-12T22:23:39.541Z,4.31
2023-03-12T22:26:08.053Z,4.36
2023-03-12T22:28:35.548Z,4.38
2023-03-12T22:31:06.680Z,4.39
2023-03-12T22:33:37.361Z,4.32
2023-03-12T22:36:10.513Z,4.31
2023-03-12T22:38:38.925Z,4.32
2023-03-12T22:41:23.424Z,4.24
2023-03-12T22:43:53.730Z,4.18
2023-03-12T22:46:23.469Z,4.25
2023-03-12T22:48:59.994Z,4.26
2023-03-12T22:51:29.925Z,4.22
2023-03-12T22:53:57.427Z,4.19
2023-03-12T22:56:25.074Z,4.25
2023-03-12T22:58:52.483Z,4.18
2023-03-12T23:01:22.429Z,4.16
2023-03-12T23:03:50.407Z,4.20
2023-03-12T23:06:22.146Z,4.16
2023-03-12T23:08:49.732Z,4.07
2023-03-12T23:11:17.859Z,4.03
2023-03-12T23:13:46.191Z,4.00
2023-03-12T23:16:17.732Z,4.07
2023-03-12T23:18:45.529Z,4.10
2023-03-12T23:21:19.346Z,4.12
2023-03-12T23:23:47.395Z,4.12
2023-03-12T23:26:22.865Z,4.15
2023-03-12T23:28:53.318Z,4.13
2023-03-12T23:31:21.109Z,4.09
2023-03-12T23:33:48.316Z,4.11
2023-03-12T23:36:19.199Z,4.13
2023-03-12T23:38:47.924Z,4.16
2023-03-12T23:41:24.264Z,4.05
2023-03-12T23:43:52.947Z,4.11
2023-03-12T23:46:20.872Z,4.14
2023-03-12T23:48:48.691Z,4.08
2023-03-12T23:51:28.760Z,4.14
2023-03-12T23:54:01.789Z,4.16
2023-03-12T23:56:37.901Z,4.18
2023-03-12T23:59:08.061Z,4.15
